createdAt,value
2023-03-14T00:01:18.827Z,7.50
2023-03-14T00:03:49.081Z,7.50
2023-03-14T00:06:18.192Z,5.40
2023-03-14T00:08:46.714Z,8.60
2023-03-14T00:11:17.981Z,9.90
2023-03-14T00:13:51.151Z,7.70
2023-03-14T00:16:19.572Z,5.30
2023-03-14T00:18:49.742Z,6.10
2023-03-14T00:21:18.484Z,8.30
2023-03-14T00:23:47.136Z,7.30
2023-03-14T00:26:18.268Z,7.10
2023-03-14T00:28:47.262Z,9.60
2023-03-14T00:31:16.758Z,6.60
2023-03-14T00:33:45.560Z,5.80
2023-03-14T00:36:17.791Z,7.30
2023-03-14T00:38:49.223Z,6.60
2023-03-14T00:41:26.499Z,7.30
2023-03-14T00:43:55.355Z,6.80
2023-03-14T00:46:24.310Z,7.60
2023-03-14T00:48:53.813Z,6.00
2023-03-14T00:51:22.593Z,7.30
2023-03-14T00:53:51.845Z,8.00
2023-03-14T00:56:20.942Z,6.80
2023-03-14T00:58:57.307Z,7.50
2023-03-14T01:01:26.044Z,6.20
2023-03-14T01:03:55.619Z,6.40
2023-03-14T01:06:27.990Z,5.90
2023-03-14T01:08:58.689Z,6.10
2023-03-14T01:11:34.321Z,8.00
2023-03-14T01:14:03.216Z,8.80
2023-03-14T01:16:35.413Z,7.50
2023-03-14T01:19:03.981Z,8.20
2023-03-14T01:21:35.024Z,6.60
2023-03-14T01:24:06.671Z,6.40
2023-03-14T01:26:36.339Z,6.60
2023-03-14T01:29:06.348Z,8.50
2023-03-14T01:31:37.630Z,8.30
2023-03-14T01:34:07.608Z,6.60
2023-03-14T01:36:38.266Z,9.10
2023-03-14T01:39:10.046Z,5.80
2023-03-14T01:41:41.514Z,7.90
2023-03-14T01:44:14.358Z,6.40
2023-03-14T01:46:46.805Z,9.00
2023-03-14T01:49:34.537Z,7.00
2023-03-14T01:52:12.886Z,6.60
2023-03-14T01:54:44.226Z,7.10
2023-03-14T01:57:44.287Z,7.60
2023-03-14T02:00:23.283Z,8.60
2023-03-14T02:03:05.972Z,5.80
2023-03-14T02:05:37.170Z,7.40
2023-03-14T02:08:49.686Z,7.90
2023-03-14T02:11:28.408Z,6.90
2023-03-14T02:14:07.634Z,7.20
2023-03-14T02:16:36.918Z,7.20
2023-03-14T02:19:42.875Z,7.90
2023-03-14T02:22:39.224Z,6.30
2023-03-14T02:25:18.533Z,7.70
2023-03-14T02:27:47.224Z,6.30
2023-03-14T02:30:19.359Z,7.20
2023-03-14T02:32:50.076Z,7.10
2023-03-14T02:35:22.390Z,7.50
2023-03-14T02:37:56.973Z,8.00
2023-03-14T02:40:27.918Z,7.80
2023-03-14T02:42:58.545Z,6.00
2023-03-14T02:45:37.536Z,9.50
2023-03-14T02:48:09.263Z,11.60
2023-03-14T02:50:38.622Z,6.40
2023-03-14T02:53:09.897Z,7.50
2023-03-14T02:55:41.037Z,6.90
2023-03-14T02:58:12.781Z,7.80
2023-03-14T03:00:42.347Z,10.70
2023-03-14T03:03:11.517Z,6.80
2023-03-14T03:05:40.275Z,6.90
2023-03-14T03:08:09.408Z,8.50
2023-03-14T03:10:38.418Z,6.30
2023-03-14T03:13:09.601Z,7.10
2023-03-14T03:15:39.230Z,7.10
2023-03-14T03:18:08.482Z,7.30
2023-03-14T03:20:37.481Z,5.80
2023-03-14T03:23:07.699Z,6.80
2023-03-14T03:25:35.992Z,6.20
2023-03-14T03:28:09.292Z,7.00
2023-03-14T03:30:40.870Z,7.40
2023-03-14T03:33:13.251Z,6.00
2023-03-14T03:35:50.221Z,6.40
2023-03-14T03:38:23.665Z,7.90
2023-03-14T03:40:56.206Z,7.70
2023-03-14T03:43:32.577Z,6.20
2023-03-14T03:46:06.416Z,6.20
2023-03-14T03:48:42.952Z,11.20
2023-03-14T03:51:15.650Z,7.20
2023-03-14T03:53:46.774Z,5.90
2023-03-14T03:56:18.231Z,6.00
2023-03-14T03:58:56.024Z,6.50
2023-03-14T04:01:29.998Z,10.00
2023-03-14T04:04:03.276Z,5.70
2023-03-14T04:06:33.269Z,8.10
2023-03-14T04:11:45.263Z,5.40
2023-03-14T04:14:27.775Z,7.60
2023-03-14T04:17:30.932Z,8.10
2023-03-14T04:19:59.150Z,6.10
2023-03-14T04:22:37.726Z,6.20
2023-03-14T04:25:20.281Z,8.20
2023-03-14T04:27:56.033Z,6.50
2023-03-14T04:30:32.266Z,6.70
2023-03-14T04:33:13.696Z,7.10
2023-03-14T04:36:00.607Z,5.60
2023-03-14T04:38:32.700Z,7.00
2023-03-14T04:41:03.304Z,5.90
2023-03-14T04:43:36.723Z,14.90
2023-03-14T04:46:15.646Z,6.20
2023-03-14T04:48:51.611Z,6.90
2023-03-14T04:51:20.614Z,8.70
2023-03-14T04:53:50.951Z,6.00
2023-03-14T04:56:20.418Z,6.10
2023-03-14T04:58:48.903Z,5.90
2023-03-14T05:01:26.167Z,5.90
2023-03-14T05:04:17.225Z,8.10
2023-03-14T05:07:01.954Z,7.80
2023-03-14T05:09:43.841Z,6.10
2023-03-14T05:12:36.653Z,7.30
2023-03-14T05:15:29.250Z,7.20
2023-03-14T05:18:24.195Z,5.80
2023-03-14T05:21:15.096Z,6.40
2023-03-14T05:23:56.440Z,6.30
2023-03-14T05:26:51.277Z,7.70
2023-03-14T05:29:34.101Z,8.70
2023-03-14T05:32:34.486Z,6.10
2023-03-14T05:35:09.972Z,6.10
2023-03-14T05:37:59.664Z,6.80
2023-03-14T05:40:47.764Z,6.40
2023-03-14T05:43:42.614Z,5.90
2023-03-14T05:46:38.784Z,6.20
2023-03-14T05:49:41.070Z,4.80
2023-03-14T05:52:45.763Z,5.60
2023-03-14T05:55:42.097Z,5.80
2023-03-14T05:58:39.669Z,6.00
2023-03-14T06:01:24.227Z,7.40
2023-03-14T06:04:15.907Z,8.70
2023-03-14T06:06:44.690Z,6.00
2023-03-14T06:09:15.396Z,6.50
2023-03-14T06:11:51.800Z,5.70
2023-03-14T06:14:21.012Z,6.90
2023-03-14T06:16:51.990Z,4.70
2023-03-14T06:19:27.123Z,6.00
2023-03-14T06:21:55.969Z,8.90
2023-03-14T06:24:27.725Z,6.20
2023-03-14T06:27:16.073Z,6.30
2023-03-14T06:29:57.057Z,7.50
2023-03-14T06:32:34.983Z,5.50
2023-03-14T06:35:09.683Z,5.80
2023-03-14T06:37:40.620Z,5.70
2023-03-14T06:40:17.356Z,6.10
2023-03-14T06:43:10.350Z,6.30
2023-03-14T06:45:41.334Z,4.80
2023-03-14T06:48:15.745Z,5.80
2023-03-14T06:50:52.614Z,8.60
2023-03-14T06:53:27.783Z,6.80
2023-03-14T06:56:04.156Z,8.00
2023-03-14T06:58:33.764Z,8.00
2023-03-14T07:01:09.124Z,7.60
2023-03-14T07:03:41.835Z,7.00
2023-03-14T07:06:11.957Z,9.30
2023-03-14T07:08:42.079Z,7.30
2023-03-14T07:11:12.205Z,6.70
2023-03-14T07:13:42.422Z,6.80
2023-03-14T07:16:14.282Z,6.30
2023-03-14T07:18:46.172Z,12.00
2023-03-14T07:21:14.966Z,7.60
2023-03-14T07:23:45.738Z,5.90
2023-03-14T07:26:15.609Z,5.90
2023-03-14T07:28:52.796Z,8.00
2023-03-14T07:31:27.068Z,7.60
2023-03-14T07:34:00.114Z,6.80
2023-03-14T07:36:32.061Z,8.60
2023-03-14T07:39:03.933Z,7.70
2023-03-14T07:42:00.053Z,7.90
2023-03-14T07:44:48.498Z,6.60
2023-03-14T07:47:17.799Z,11.10
2023-03-14T07:49:46.287Z,5.70
2023-03-14T07:52:16.412Z,9.60
2023-03-14T07:54:46.236Z,5.90
2023-03-14T07:57:15.566Z,5.50
2023-03-14T07:59:45.174Z,6.40
2023-03-14T08:02:17.591Z,7.80
2023-03-14T08:04:51.254Z,7.50
2023-03-14T08:09:51.397Z,10.40
2023-03-14T08:12:21.311Z,5.50
2023-03-14T08:14:55.012Z,11.20
2023-03-14T08:17:24.210Z,7.10
2023-03-14T08:19:52.896Z,8.90
2023-03-14T08:22:23.534Z,6.70
2023-03-14T08:24:58.152Z,8.90
2023-03-14T08:27:35.822Z,8.00
2023-03-14T08:30:05.577Z,12.50
2023-03-14T08:32:43.044Z,8.40
2023-03-14T08:35:12.256Z,8.50
2023-03-14T08:37:41.578Z,8.30
2023-03-14T08:40:11.476Z,8.30
2023-03-14T08:42:40.656Z,6.40
2023-03-14T08:45:14.478Z,9.20
2023-03-14T08:47:44.567Z,8.20
2023-03-14T08:50:16.273Z,9.40
2023-03-14T08:52:50.514Z,8.40
2023-03-14T08:57:48.889Z,8.00
2023-03-14T09:00:18.596Z,10.40
2023-03-14T09:02:50.125Z,8.30
2023-03-14T09:05:21.534Z,8.30
2023-03-14T09:07:53.109Z,8.90
2023-03-14T09:10:21.689Z,6.40
2023-03-14T09:12:53.140Z,8.00
2023-03-14T09:15:21.637Z,6.70
2023-03-14T09:17:50.209Z,9.60
2023-03-14T09:20:24.674Z,8.20
2023-03-14T09:23:00.473Z,8.30
2023-03-14T09:25:33.302Z,5.50
2023-03-14T09:28:06.068Z,6.90
2023-03-14T09:30:38.860Z,5.90
2023-03-14T09:33:07.017Z,6.30
2023-03-14T09:35:37.039Z,10.60
2023-03-14T09:38:11.113Z,5.50
2023-03-14T09:40:39.686Z,6.50
2023-03-14T09:43:13.420Z,8.90
2023-03-14T09:45:42.103Z,7.60
2023-03-14T09:48:19.949Z,12.90
2023-03-14T09:50:54.850Z,6.20
2023-03-14T09:53:29.203Z,7.80
2023-03-14T09:55:59.239Z,5.90
2023-03-14T09:58:31.524Z,11.00
2023-03-14T10:03:36.437Z,5.50
2023-03-14T10:06:13.522Z,7.00
2023-03-14T10:08:44.120Z,5.70
2023-03-14T10:11:17.564Z,5.80
2023-03-14T10:14:03.256Z,5.10
2023-03-14T10:16:35.547Z,9.20
2023-03-14T10:19:16.002Z,6.90
2023-03-14T10:21:51.841Z,7.70
2023-03-14T10:24:28.596Z,7.90
2023-03-14T10:27:06.656Z,8.70
2023-03-14T10:29:36.957Z,5.10
2023-03-14T10:32:12.686Z,6.90
2023-03-14T10:34:41.474Z,6.50
2023-03-14T10:37:22.559Z,5.80
2023-03-14T10:39:55.603Z,5.80
2023-03-14T10:42:37.201Z,6.00
2023-03-14T10:45:08.746Z,7.80
2023-03-14T10:47:37.062Z,6.60
2023-03-14T10:50:26.827Z,5.90
2023-03-14T10:53:02.539Z,6.00
2023-03-14T10:55:45.239Z,6.90
2023-03-14T10:58:43.824Z,6.30
2023-03-14T11:01:30.846Z,5.10
2023-03-14T11:04:14.335Z,9.20
2023-03-14T11:07:06.654Z,4.70
2023-03-14T11:09:46.196Z,6.80
2023-03-14T11:12:34.642Z,7.50
2023-03-14T11:15:26.469Z,9.20
2023-03-14T11:18:21.694Z,6.70
2023-03-14T11:21:13.790Z,6.60
2023-03-14T11:24:04.768Z,5.70
2023-03-14T11:26:54.612Z,6.50
2023-03-14T11:29:51.558Z,7.70
2023-03-14T11:32:31.126Z,6.70
2023-03-14T11:35:01.115Z,5.80
2023-03-14T11:37:35.128Z,4.50
2023-03-14T11:40:37.167Z,4.10
2023-03-14T11:43:13.959Z,5.60
2023-03-14T11:45:44.325Z,5.40
2023-03-14T11:48:13.553Z,5.60
2023-03-14T11:50:44.104Z,6.00
2023-03-14T11:53:23.371Z,5.50
2023-03-14T11:55:56.231Z,5.10
2023-03-14T11:58:32.980Z,5.10
2023-03-14T12:01:04.360Z,7.40
2023-03-14T12:03:47.520Z,7.60
2023-03-14T12:06:34.906Z,7.40
2023-03-14T12:09:05.404Z,6.10
2023-03-14T12:11:42.699Z,6.30
2023-03-14T12:14:30.065Z,5.80
2023-03-14T12:17:21.074Z,4.00
2023-03-14T12:20:01.142Z,9.90
2023-03-14T12:22:36.287Z,4.40
2023-03-14T12:25:28.602Z,8.90
2023-03-14T12:27:58.950Z,5.20
2023-03-14T12:30:44.407Z,4.40
2023-03-14T12:33:19.632Z,6.60
2023-03-14T12:35:52.859Z,7.50
2023-03-14T12:38:27.501Z,5.50
2023-03-14T12:41:37.731Z,5.30
2023-03-14T12:44:43.412Z,5.50
2023-03-14T12:47:18.329Z,5.40
2023-03-14T12:49:50.861Z,4.10
2023-03-14T12:52:23.942Z,4.50
2023-03-14T12:55:11.778Z,4.80
2023-03-14T12:57:43.854Z,5.00
2023-03-14T13:00:31.027Z,4.40
2023-03-14T13:03:26.475Z,4.80
2023-03-14T13:06:02.983Z,5.50
2023-03-14T13:08:40.878Z,5.90
2023-03-14T13:11:20.389Z,4.30
2023-03-14T13:13:50.685Z,7.80
2023-03-14T13:16:22.510Z,4.80
2023-03-14T13:19:18.312Z,5.90
2023-03-14T13:21:48.314Z,5.80
2023-03-14T13:24:23.984Z,6.40
2023-03-14T13:26:56.645Z,5.60
2023-03-14T13:29:34.565Z,7.60
2023-03-14T13:32:18.402Z,8.80
2023-03-14T13:34:48.823Z,7.80
2023-03-14T13:37:24.983Z,8.70
2023-03-14T13:39:57.824Z,7.70
2023-03-14T13:42:28.748Z,9.80
2023-03-14T13:45:01.194Z,10.20
2023-03-14T13:47:33.356Z,11.70
2023-03-14T13:50:03.673Z,9.90
2023-03-14T13:52:36.949Z,8.30
2023-03-14T13:55:14.816Z,8.80
2023-03-14T13:57:47.272Z,8.00
2023-03-14T14:00:23.501Z,6.10
2023-03-14T14:02:53.114Z,8.70
2023-03-14T14:05:22.796Z,5.10
2023-03-14T14:07:53.507Z,5.50
2023-03-14T14:10:22.451Z,6.20
2023-03-14T14:13:02.604Z,5.00
2023-03-14T14:15:36.568Z,6.90
2023-03-14T14:18:06.347Z,5.30
2023-03-14T14:20:47.834Z,6.70
2023-03-14T14:23:37.419Z,10.40
2023-03-14T14:27:40.464Z,6.30
2023-03-14T14:30:23.461Z,5.70
2023-03-14T14:32:53.290Z,7.10
2023-03-14T14:35:26.981Z,6.00
2023-03-14T14:37:55.878Z,9.80
2023-03-14T14:40:26.264Z,5.90
2023-03-14T14:42:54.837Z,4.20
2023-03-14T14:45:26.381Z,6.80
2023-03-14T14:47:56.783Z,10.10
2023-03-14T14:50:38.593Z,6.00
2023-03-14T14:53:27.368Z,6.50
2023-03-14T14:56:02.597Z,7.10
2023-03-14T14:58:35.885Z,7.70
2023-03-14T15:01:17.238Z,10.10
2023-03-14T15:03:50.447Z,8.50
2023-03-14T15:06:19.244Z,6.30
2023-03-14T15:08:49.059Z,6.20
2023-03-14T15:11:21.952Z,8.50
2023-03-14T15:13:54.131Z,10.10
2023-03-14T15:16:26.756Z,5.00
2023-03-14T15:21:49.338Z,7.70
2023-03-14T15:24:18.045Z,6.80
2023-03-14T15:26:47.484Z,5.70
2023-03-14T15:29:15.929Z,7.10
2023-03-14T15:32:04.492Z,10.30
2023-03-14T15:34:34.192Z,7.80
2023-03-14T15:37:08.263Z,12.80
2023-03-14T15:39:36.687Z,10.10
2023-03-14T15:42:04.961Z,14.10
2023-03-14T15:44:33.356Z,12.60
2023-03-14T15:47:02.433Z,10.90
2023-03-14T15:49:31.325Z,6.90
2023-03-14T15:52:00.831Z,12.40
2023-03-14T15:54:29.621Z,14.30
2023-03-14T15:56:58.309Z,19.70
2023-03-14T15:59:27.806Z,11.30
2023-03-14T16:01:55.990Z,13.30
2023-03-14T16:04:25.520Z,9.50
2023-03-14T16:06:54.278Z,13.10
2023-03-14T16:09:24.908Z,13.50
2023-03-14T16:11:55.004Z,11.80
2023-03-14T16:14:24.846Z,7.10
2023-03-14T16:16:54.361Z,9.60
2023-03-14T16:19:23.859Z,13.50
2023-03-14T16:21:52.379Z,11.50
2023-03-14T16:24:26.859Z,11.00
2023-03-14T16:26:57.085Z,21.50
2023-03-14T16:29:25.975Z,11.10
2023-03-14T16:31:56.180Z,14.00
2023-03-14T16:34:26.114Z,15.00
2023-03-14T16:36:56.132Z,15.10
2023-03-14T16:39:27.577Z,8.90
2023-03-14T16:41:59.050Z,17.40
2023-03-14T16:44:29.457Z,10.70
2023-03-14T16:46:58.756Z,18.20
2023-03-14T16:49:28.185Z,15.70
2023-03-14T16:51:57.049Z,13.00
2023-03-14T16:54:28.194Z,15.40
2023-03-14T16:56:57.597Z,13.40
2023-03-14T16:59:27.213Z,17.90
2023-03-14T17:01:56.878Z,16.00
2023-03-14T17:04:25.779Z,10.00
2023-03-14T17:06:58.588Z,17.50
2023-03-14T17:09:28.915Z,18.30
2023-03-14T17:11:59.990Z,12.60
2023-03-14T17:14:30.488Z,15.30
2023-03-14T17:16:59.094Z,17.30
2023-03-14T17:19:29.031Z,26.20
2023-03-14T17:22:21.173Z,15.60
2023-03-14T17:25:09.979Z,20.30
2023-03-14T17:27:46.101Z,12.80
2023-03-14T17:30:15.676Z,15.80
2023-03-14T17:32:47.353Z,9.20
2023-03-14T17:35:16.400Z,16.10
2023-03-14T17:37:45.225Z,14.80
2023-03-14T17:40:14.289Z,15.00
2023-03-14T17:42:43.483Z,16.10
2023-03-14T17:45:11.874Z,12.50
2023-03-14T17:47:41.268Z,17.50
2023-03-14T17:50:11.059Z,14.40
2023-03-14T17:52:40.272Z,12.50
2023-03-14T17:55:09.993Z,15.00
2023-03-14T17:57:40.434Z,11.10
2023-03-14T18:00:10.595Z,9.90
2023-03-14T18:02:41.671Z,12.60
2023-03-14T18:05:10.983Z,15.70
2023-03-14T18:07:41.008Z,15.60
2023-03-14T18:10:14.697Z,16.90
2023-03-14T18:12:46.260Z,10.20
2023-03-14T18:15:15.468Z,11.30
2023-03-14T18:17:46.405Z,12.80
2023-03-14T18:20:27.167Z,14.80
2023-03-14T18:22:56.271Z,10.50
2023-03-14T18:25:28.432Z,10.80
2023-03-14T18:30:26.418Z,8.70
2023-03-14T18:32:55.656Z,10.50
2023-03-14T18:35:24.408Z,12.00
2023-03-14T18:37:52.888Z,8.70
2023-03-14T18:40:24.548Z,8.40
2023-03-14T18:43:05.519Z,9.50
2023-03-14T18:45:35.340Z,8.60
2023-03-14T18:48:04.633Z,9.60
2023-03-14T18:50:33.701Z,7.10
2023-03-14T18:53:05.262Z,6.80
2023-03-14T18:55:35.167Z,9.70
2023-03-14T18:58:04.000Z,6.00
2023-03-14T19:00:37.510Z,10.60
2023-03-14T19:03:27.740Z,11.50
2023-03-14T19:05:56.905Z,12.30
2023-03-14T19:08:30.345Z,8.30
2023-03-14T19:11:01.546Z,11.30
2023-03-14T19:13:32.791Z,8.60
2023-03-14T19:16:03.953Z,9.00
2023-03-14T19:18:33.923Z,7.60
2023-03-14T19:21:09.606Z,4.20
2023-03-14T19:23:40.039Z,9.40
2023-03-14T19:26:12.001Z,7.30
2023-03-14T19:28:42.215Z,11.50
2023-03-14T19:31:12.426Z,6.10
2023-03-14T19:33:45.235Z,7.00
2023-03-14T19:36:35.356Z,4.80
2023-03-14T19:39:09.323Z,4.00
2023-03-14T19:41:39.419Z,5.30
2023-03-14T19:44:08.223Z,7.80
2023-03-14T19:46:41.680Z,5.50
2023-03-14T19:49:12.163Z,7.30
2023-03-14T19:51:41.544Z,5.10
2023-03-14T19:54:11.277Z,6.80
2023-03-14T19:56:41.551Z,4.90
2023-03-14T19:59:11.415Z,3.50
2023-03-14T20:01:40.042Z,7.60
2023-03-14T20:04:16.022Z,6.50
2023-03-14T20:06:46.382Z,4.80
2023-03-14T20:09:15.066Z,3.10
2023-03-14T20:11:44.681Z,4.00
2023-03-14T20:14:16.542Z,5.50
2023-03-14T20:16:45.065Z,3.90
2023-03-14T20:19:18.427Z,4.60
2023-03-14T20:21:47.312Z,3.80
2023-03-14T20:24:15.943Z,3.00
2023-03-14T20:26:44.483Z,4.70
2023-03-14T20:29:15.738Z,5.30
2023-03-14T20:31:47.590Z,4.20
2023-03-14T20:34:16.085Z,7.70
2023-03-14T20:36:53.074Z,6.00
2023-03-14T20:39:21.845Z,6.50
2023-03-14T20:41:50.843Z,5.20
2023-03-14T20:44:19.640Z,5.80
2023-03-14T20:46:51.606Z,5.30
2023-03-14T20:49:20.496Z,5.90
2023-03-14T20:51:48.968Z,6.20
2023-03-14T20:56:51.052Z,5.60
2023-03-14T20:59:20.059Z,5.20
2023-03-14T21:04:36.580Z,7.00
2023-03-14T21:07:07.289Z,8.10
2023-03-14T21:09:36.764Z,5.10
2023-03-14T21:12:05.999Z,4.40
2023-03-14T21:14:36.831Z,5.30
2023-03-14T21:17:07.052Z,8.70
2023-03-14T21:19:35.533Z,8.90
2023-03-14T21:22:07.089Z,7.00
2023-03-14T21:24:36.488Z,7.70
2023-03-14T21:27:06.922Z,6.80
2023-03-14T21:29:37.461Z,7.20
2023-03-14T21:32:06.369Z,9.30
2023-03-14T21:34:41.015Z,8.90
2023-03-14T21:37:17.996Z,8.10
2023-03-14T21:39:46.473Z,7.60
2023-03-14T21:42:15.162Z,7.40
2023-03-14T21:44:51.839Z,8.80
2023-03-14T21:47:23.958Z,8.70
2023-03-14T21:49:54.436Z,7.40
2023-03-14T21:52:24.970Z,11.00
2023-03-14T21:54:54.186Z,7.90
2023-03-14T21:57:29.962Z,7.90
2023-03-14T21:59:58.376Z,8.90
2023-03-14T22:02:26.730Z,7.50
2023-03-14T22:04:58.187Z,8.50
2023-03-14T22:07:26.977Z,9.00
2023-03-14T22:09:56.094Z,9.90
2023-03-14T22:12:28.238Z,7.80
2023-03-14T22:14:58.662Z,10.10
2023-03-14T22:17:27.457Z,7.40
2023-03-14T22:19:56.021Z,8.00
2023-03-14T22:22:24.929Z,8.90
2023-03-14T22:24:56.398Z,8.80
2023-03-14T22:27:24.755Z,11.70
2023-03-14T22:29:52.842Z,8.10
2023-03-14T22:32:23.279Z,10.90
2023-03-14T22:34:52.457Z,7.60
2023-03-14T22:37:23.295Z,7.60
2023-03-14T22:39:52.595Z,7.70
2023-03-14T22:42:20.968Z,8.50
2023-03-14T22:44:52.009Z,9.30
2023-03-14T22:47:20.598Z,6.80
2023-03-14T22:49:50.211Z,7.30
2023-03-14T22:52:35.145Z,9.60
2023-03-14T22:55:03.444Z,9.00
2023-03-14T22:57:31.929Z,9.50
2023-03-14T23:00:00.611Z,9.50
2023-03-14T23:02:29.211Z,5.80
2023-03-14T23:04:57.474Z,8.70
2023-03-14T23:07:25.646Z,8.90
2023-03-14T23:09:54.412Z,7.00
2023-03-14T23:12:22.820Z,9.50
2023-03-14T23:14:50.893Z,7.50
2023-03-14T23:17:19.402Z,9.00
2023-03-14T23:19:48.466Z,9.70
2023-03-14T23:22:18.388Z,9.80
2023-03-14T23:24:49.024Z,12.00
2023-03-14T23:27:17.415Z,7.40
2023-03-14T23:29:47.728Z,8.50
2023-03-14T23:32:16.225Z,8.80
2023-03-14T23:34:49.297Z,8.70
2023-03-14T23:37:18.908Z,8.40
2023-03-14T23:39:48.325Z,6.40
2023-03-14T23:42:16.532Z,8.20
2023-03-14T23:44:45.273Z,8.70
2023-03-14T23:47:13.859Z,8.50
2023-03-14T23:49:42.134Z,10.40
2023-03-14T23:52:11.537Z,7.60
2023-03-14T23:54:42.271Z,8.20
2023-03-14T23:57:10.454Z,8.00
2023-03-14T23:59:39.538Z,8.20
